Time;durP1;ratioP1;P1;durP2;ratioP2;P2;SDS_P1;SDS_P2;PMS_P1;PMS_P2;Temp;Humidity;BMP_temperature;BMP_pressure;BME280_temperature;BME280_humidity;BME280_pressure;Samples;Min_cycle;Max_cycle;Signal;HPM_P1;HPM_P2
2022/01/24 06:25:10;;;;;;;76.57;51.10;;;-2.60;99.90;;;;;;5442599;23;20505;-78
2022/01/24 06:27:45;;;;;;;60.07;39.23;;;-2.60;99.90;;;;;;4909285;29;20460;-77
2022/01/24 06:30:13;;;;;;;46.87;30.77;;;-2.60;99.90;;;;;;4895522;29;20506;-79
2022/01/24 06:32:41;;;;;;;35.37;23.93;;;-2.50;99.90;;;;;;4897302;29;20542;-79
2022/01/24 06:35:12;;;;;;;36.73;24.57;;;-2.50;99.90;;;;;;4897687;29;20533;-78
2022/01/24 06:37:41;;;;;;;41.07;25.90;;;-2.50;99.90;;;;;;4893068;29;20472;-78
2022/01/24 06:40:12;;;;;;;37.00;24.20;;;-2.50;99.90;;;;;;4898044;29;20450;-75
2022/01/24 06:42:40;;;;;;;37.97;24.93;;;-2.50;99.90;;;;;;4893713;29;20577;-76
2022/01/24 06:45:10;;;;;;;35.23;24.43;;;-2.40;99.90;;;;;;4891723;29;20557;-76
2022/01/24 06:47:40;;;;;;;36.57;25.10;;;-2.40;99.90;;;;;;4893428;29;20951;-77
2022/01/24 06:50:09;;;;;;;39.50;26.93;;;-2.40;99.90;;;;;;4882334;29;20506;-79
2022/01/24 06:52:37;;;;;;;38.43;26.03;;;-2.40;99.90;;;;;;4878931;29;20531;-79
2022/01/24 06:55:06;;;;;;;36.20;25.57;;;-2.40;99.90;;;;;;4869184;29;20533;-77
2022/01/24 06:57:35;;;;;;;35.70;23.83;;;-2.50;99.90;;;;;;4870742;29;20517;-78
2022/01/24 07:00:06;;;;;;;34.23;23.43;;;-2.50;99.90;;;;;;4863924;29;20471;-76
2022/01/24 07:02:36;;;;;;;33.17;22.80;;;-2.50;99.90;;;;;;4849976;29;20550;-77
2022/01/24 07:05:05;;;;;;;36.67;23.27;;;-2.50;99.90;;;;;;4841613;29;20465;-75
2022/01/24 07:07:33;;;;;;;37.20;24.50;;;-2.50;99.90;;;;;;4840755;29;20492;-76
2022/01/24 07:10:02;;;;;;;35.63;24.00;;;-2.40;99.90;;;;;;4862117;29;20464;-78
2022/01/24 07:12:51;;;;;;;35.50;24.67;;;-2.40;99.90;;;;;;4857236;29;20482;-77
2022/01/24 07:15:23;;;;;;;36.70;24.23;;;-2.40;99.90;;;;;;4864648;29;20498;-77
2022/01/24 07:18:17;;;;;;;35.13;23.90;;;-2.40;99.90;;;;;;4853797;29;20814;-78
2022/01/24 07:20:45;;;;;;;33.97;23.67;;;-2.30;99.90;;;;;;4852828;29;21141;-78
2022/01/24 07:23:13;;;;;;;33.93;22.30;;;-2.30;99.90;;;;;;4867538;29;20482;-79
2022/01/24 07:25:44;;;;;;;31.30;22.20;;;-2.30;99.90;;;;;;4852629;29;20472;-77
2022/01/24 07:28:14;;;;;;;31.90;21.87;;;-2.20;99.90;;;;;;4854128;29;20882;-79
2022/01/24 07:30:43;;;;;;;32.33;23.47;;;-2.20;99.90;;;;;;4860347;29;20539;-80
2022/01/24 07:33:11;;;;;;;32.70;21.87;;;-2.10;99.90;;;;;;4860090;29;20451;-78
2022/01/24 07:35:39;;;;;;;31.93;21.87;;;-2.00;99.90;;;;;;4854081;29;20576;-78
2022/01/24 07:38:07;;;;;;;46.13;24.60;;;-2.00;99.90;;;;;;4849612;29;20511;-78
2022/01/24 07:40:39;;;;;;;35.50;22.77;;;-1.90;99.90;;;;;;4863887;29;20540;-78
2022/01/24 07:43:12;;;;;;;35.20;22.97;;;-1.90;99.90;;;;;;4864537;29;20483;-79
2022/01/24 07:45:43;;;;;;;34.70;22.93;;;-1.80;99.90;;;;;;4866858;29;20472;-77
2022/01/24 07:48:13;;;;;;;34.53;22.20;;;-1.70;99.90;;;;;;4858985;29;21317;-77
2022/01/24 07:50:46;;;;;;;29.77;21.03;;;-1.70;99.90;;;;;;4859403;29;20523;-78
2022/01/24 07:53:16;;;;;;;31.47;22.20;;;-1.50;99.90;;;;;;4862998;29;20854;-80
2022/01/24 07:56:04;;;;;;;30.20;21.47;;;-1.50;99.90;;;;;;4856876;29;20553;-80
2022/01/24 07:58:32;;;;;;;28.57;19.63;;;-1.40;99.90;;;;;;4863284;29;20466;-77
2022/01/24 08:01:02;;;;;;;32.07;21.57;;;-1.30;99.90;;;;;;4862118;29;20492;-78
2022/01/24 08:03:31;;;;;;;26.77;20.03;;;-1.10;99.90;;;;;;4855175;29;20538;-79
2022/01/24 08:05:59;;;;;;;30.80;20.70;;;-0.90;99.90;;;;;;4864270;29;20461;-80
2022/01/24 08:08:27;;;;;;;29.90;20.60;;;-0.70;99.90;;;;;;4864996;29;20554;-78
2022/01/24 08:10:59;;;;;;;53.27;21.13;;;-0.30;99.90;;;;;;4870700;29;20496;-77
2022/01/24 08:13:28;;;;;;;34.00;19.03;;;-0.10;99.90;;;;;;4870444;29;20442;-79
2022/01/24 08:15:56;;;;;;;32.03;17.73;;;0.00;99.90;;;;;;4868083;29;20483;-78
2022/01/24 08:18:25;;;;;;;28.73;17.17;;;0.10;99.90;;;;;;4853392;29;21052;-77
2022/01/24 08:20:53;;;;;;;20.77;16.33;;;0.10;99.90;;;;;;4843828;29;20563;-78
2022/01/24 08:23:24;;;;;;;31.37;16.07;;;0.10;99.90;;;;;;4844685;29;20966;-77
2022/01/24 08:25:55;;;;;;;32.80;17.17;;;0.10;99.90;;;;;;4855789;29;20950;-77
2022/01/24 08:28:23;;;;;;;57.93;17.53;;;0.10;99.90;;;;;;4862806;29;20261;-77
2022/01/24 08:30:52;;;;;;;67.10;18.87;;;0.10;99.90;;;;;;4857290;29;20463;-79
2022/01/24 08:33:22;;;;;;;52.47;21.53;;;-0.10;99.90;;;;;;4850000;29;20532;-76
2022/01/24 08:35:53;;;;;;;58.40;21.63;;;-0.10;99.90;;;;;;4850204;29;20464;-80
2022/01/24 08:38:23;;;;;;;181.23;19.90;;;-0.10;99.90;;;;;;4850530;29;20211;-79
2022/01/24 08:40:56;;;;;;;147.17;22.77;;;-0.30;99.90;;;;;;4852133;29;20946;-78
2022/01/24 08:43:38;;;;;;;88.57;20.30;;;-0.40;99.90;;;;;;4847515;29;20200;-80
2022/01/24 08:46:07;;;;;;;113.43;19.00;;;-0.30;99.90;;;;;;4854542;29;20950;-78
2022/01/24 08:48:36;;;;;;;47.40;19.17;;;-0.50;99.90;;;;;;4847311;29;20472;-82
2022/01/24 08:51:06;;;;;;;30.63;18.03;;;-0.60;99.90;;;;;;4858559;29;20479;-76
2022/01/24 08:53:34;;;;;;;29.30;19.58;;;-0.60;99.90;;;;;;4855619;29;21006;-79
2022/01/24 08:56:06;;;;;;;25.20;18.80;;;-0.50;99.90;;;;;;4857237;29;20211;-77
2022/01/24 08:58:36;;;;;;;26.87;18.60;;;-0.60;99.90;;;;;;4844420;29;20465;-78
2022/01/24 09:01:05;;;;;;;28.67;19.80;;;-0.40;99.90;;;;;;4853504;29;20520;-78
2022/01/24 09:03:39;;;;;;;30.10;19.57;;;-0.30;99.90;;;;;;4848250;29;20457;-78
2022/01/24 09:06:10;;;;;;;35.63;20.70;;;-0.20;99.90;;;;;;4855353;29;20462;-78
2022/01/24 09:08:39;;;;;;;51.23;20.50;;;0.00;99.90;;;;;;4850624;29;20276;-77
2022/01/24 09:11:09;;;;;;;65.27;22.20;;;0.10;99.90;;;;;;4856472;29;20491;-77
2022/01/24 09:13:37;;;;;;;113.90;21.07;;;0.30;99.90;;;;;;4864031;29;20266;-79
2022/01/24 09:16:06;;;;;;;80.80;23.63;;;0.00;99.90;;;;;;4860403;29;20504;-78
2022/01/24 09:18:34;;;;;;;64.97;22.87;;;-0.10;99.90;;;;;;4866451;29;20496;-77
2022/01/24 09:21:02;;;;;;;91.23;23.73;;;-0.10;99.90;;;;;;4847308;29;20464;-77
2022/01/24 09:23:32;;;;;;;144.97;24.57;;;-0.20;99.90;;;;;;4857238;29;20224;-79
2022/01/24 09:26:00;;;;;;;87.67;24.57;;;-0.30;99.90;;;;;;4861226;29;20527;-75
2022/01/24 09:28:28;;;;;;;79.67;23.03;;;-0.30;99.90;;;;;;4855193;29;20467;-79
2022/01/24 09:30:57;;;;;;;92.47;23.63;;;-0.20;99.90;;;;;;4855280;29;20497;-77
2022/01/24 09:33:27;;;;;;;66.07;22.53;;;0.10;99.90;;;;;;4851032;29;20215;-78
2022/01/24 09:35:59;;;;;;;91.63;23.50;;;0.10;99.90;;;;;;4850035;29;20217;-75
2022/01/24 09:38:32;;;;;;;74.43;23.17;;;0.20;99.90;;;;;;4853051;29;20464;-78
2022/01/24 09:41:12;;;;;;;72.73;20.73;;;0.30;99.90;;;;;;4847424;29;20230;-77
2022/01/24 09:44:05;;;;;;;89.10;19.63;;;0.20;99.90;;;;;;4847297;29;20263;-78
2022/01/24 09:46:35;;;;;;;67.78;26.15;;;0.20;99.90;;;;;;4852056;29;20467;-77
2022/01/24 09:49:04;;;;;;;73.53;22.90;;;0.10;99.90;;;;;;4858385;29;20246;-78
2022/01/24 09:51:33;;;;;;;48.77;22.90;;;0.20;99.90;;;;;;4851814;29;20215;-76
2022/01/24 09:54:03;;;;;;;62.57;24.20;;;0.40;99.90;;;;;;4846193;29;20208;-78
2022/01/24 09:56:33;;;;;;;69.30;21.47;;;0.60;99.90;;;;;;4849792;29;20464;-76
2022/01/24 09:59:04;;;;;;;63.13;21.93;;;0.70;99.90;;;;;;4842995;29;20524;-79
2022/01/24 10:01:34;;;;;;;48.07;22.40;;;0.50;99.90;;;;;;4846135;29;20593;-77
2022/01/24 10:04:16;;;;;;;35.97;21.50;;;0.70;99.90;;;;;;4855180;29;20217;-75
2022/01/24 10:07:06;;;;;;;55.50;23.27;;;0.80;99.90;;;;;;4860283;29;20218;-78
2022/01/24 10:09:38;;;;;;;51.27;20.27;;;0.80;99.90;;;;;;4858590;29;20832;-78
2022/01/24 10:12:29;;;;;;;33.87;23.03;;;0.90;99.90;;;;;;4851546;29;20840;-78
2022/01/24 10:17:49;;;;;;;36.53;19.23;;;0.90;99.90;;;;;;4845096;29;20279;-77
2022/01/24 10:20:24;;;;;;;37.67;21.20;;;0.90;99.90;;;;;;4850664;29;20583;-76
2022/01/24 10:23:08;;;;;;;37.77;19.90;;;0.80;99.90;;;;;;4846488;29;20207;-77
2022/01/24 10:25:59;;;;;;;40.23;19.93;;;0.70;99.90;;;;;;4864506;29;20527;-78
2022/01/24 10:28:33;;;;;;;36.70;20.97;;;0.90;99.90;;;;;;4852798;29;20227;-77
2022/01/24 10:31:10;;;;;;;37.23;20.80;;;1.10;99.90;;;;;;4851027;29;20254;-77
2022/01/24 10:33:53;;;;;;;41.53;21.10;;;1.00;99.90;;;;;;4860477;29;20211;-78
2022/01/24 10:36:36;;;;;;;39.47;20.40;;;1.00;99.90;;;;;;4860797;29;20209;-76
2022/01/24 10:39:13;;;;;;;67.30;23.33;;;1.20;99.90;;;;;;4860451;29;20440;-78
2022/01/24 10:42:10;;;;;;;51.00;22.95;;;1.00;99.90;;;;;;4859446;29;20455;-76
2022/01/24 10:44:39;;;;;;;65.43;23.67;;;1.10;99.90;;;;;;4862780;29;20636;-75
2022/01/24 10:47:17;;;;;;;55.00;20.80;;;1.40;99.90;;;;;;4861564;29;20709;-76
2022/01/24 10:49:46;;;;;;;43.60;19.00;;;1.40;99.90;;;;;;4850780;29;20292;-79
2022/01/24 10:52:17;;;;;;;34.73;19.53;;;1.40;99.90;;;;;;4856096;29;20215;-76
2022/01/24 10:54:46;;;;;;;28.70;19.00;;;1.70;99.90;;;;;;4861124;29;20199;-75
2022/01/24 10:57:22;;;;;;;31.27;18.60;;;2.10;99.90;;;;;;4861447;29;20688;-77
2022/01/24 10:59:52;;;;;;;24.77;17.80;;;2.50;99.90;;;;;;4867957;29;20199;-77
2022/01/24 11:02:20;;;;;;;40.50;18.37;;;2.60;99.90;;;;;;4858305;29;20250;-77
2022/01/24 11:04:48;;;;;;;28.67;17.50;;;2.50;99.90;;;;;;4842916;29;20243;-76
2022/01/24 11:07:23;;;;;;;31.00;18.63;;;2.30;99.90;;;;;;4843621;29;20247;-76
2022/01/24 11:09:51;;;;;;;27.30;17.03;;;2.40;99.90;;;;;;4857593;29;20235;-76
2022/01/24 11:12:23;;;;;;;25.87;17.40;;;2.00;99.90;;;;;;4852009;29;20235;-77
2022/01/24 11:14:54;;;;;;;30.67;18.90;;;2.00;99.90;;;;;;4842246;29;20271;-76
2022/01/24 11:17:29;;;;;;;25.77;18.37;;;2.10;99.90;;;;;;4855394;29;20305;-75
2022/01/24 11:20:02;;;;;;;39.63;18.50;;;2.10;99.90;;;;;;4859775;29;20275;-75
2022/01/24 11:22:35;;;;;;;37.73;17.37;;;3.20;99.90;;;;;;4858197;29;20205;-78
2022/01/24 11:25:06;;;;;;;26.70;15.50;;;4.40;99.90;;;;;;4858703;29;20326;-76
2022/01/24 11:27:38;;;;;;;18.10;14.03;;;5.30;99.90;;;;;;4862550;29;20260;-77
2022/01/24 11:30:13;;;;;;;16.33;13.43;;;6.20;99.90;;;;;;4863757;29;20218;-75
2022/01/24 11:32:49;;;;;;;19.33;14.43;;;6.60;99.90;;;;;;4863776;29;20206;-73
2022/01/24 11:35:31;;;;;;;20.63;14.00;;;7.20;99.90;;;;;;4864413;29;20247;-75
2022/01/24 11:38:01;;;;;;;18.03;13.63;;;8.50;99.90;;;;;;4851542;29;20258;-75
2022/01/24 11:40:45;;;;;;;16.70;14.43;;;9.30;99.90;;;;;;4845422;29;20214;-75
2022/01/24 11:43:34;;;;;;;17.37;14.67;;;10.10;99.90;;;;;;4856798;29;20617;-75
2022/01/24 11:46:08;;;;;;;16.63;13.80;;;9.10;99.90;;;;;;4855038;29;20588;-74
2022/01/24 11:48:38;;;;;;;13.50;11.83;;;9.30;99.90;;;;;;4865556;29;20293;-74
2022/01/24 11:51:10;;;;;;;14.90;12.50;;;9.40;99.90;;;;;;4866008;29;20271;-74
2022/01/24 11:53:41;;;;;;;14.60;12.57;;;8.30;99.90;;;;;;4863576;29;20259;-76
2022/01/24 11:56:28;;;;;;;14.50;12.43;;;8.00;99.90;;;;;;4847131;29;20196;-75
2022/01/24 11:59:20;;;;;;;14.10;12.23;;;7.70;99.90;;;;;;4857063;29;20573;-76
2022/01/24 12:02:06;;;;;;;13.97;12.13;;;7.80;99.90;;;;;;4863942;29;20294;-75
2022/01/24 12:04:58;;;;;;;13.97;11.37;;;7.90;99.90;;;;;;4867058;29;20225;-76
2022/01/24 12:07:29;;;;;;;13.20;10.20;;;7.10;99.90;;;;;;4872006;29;20203;-75
2022/01/24 12:10:37;;;;;;;15.60;10.43;;;7.30;99.90;;;;;;4867742;29;20211;-75
2022/01/24 12:13:09;;;;;;;18.73;10.90;;;7.60;99.90;;;;;;4856950;29;20211;-74
2022/01/24 12:15:58;;;;;;;16.57;9.90;;;7.20;99.90;;;;;;4863530;29;20207;-78
2022/01/24 12:18:51;;;;;;;18.37;11.40;;;7.00;99.90;;;;;;4863772;29;20588;-74
2022/01/24 12:21:26;;;;;;;12.33;10.77;;;6.90;99.90;;;;;;4861464;29;20277;-77
2022/01/24 12:23:55;;;;;;;11.77;10.00;;;7.00;99.90;;;;;;4844567;29;20260;-79
2022/01/24 12:26:46;;;;;;;16.33;11.47;;;6.60;99.90;;;;;;4844987;29;20223;-75
2022/01/24 12:29:16;;;;;;;19.63;11.43;;;5.80;99.90;;;;;;4857316;29;20266;-78
2022/01/24 12:31:48;;;;;;;13.50;11.40;;;5.70;99.90;;;;;;4863055;29;20215;-77
2022/01/24 12:34:28;;;;;;;27.23;12.53;;;5.30;99.90;;;;;;4862203;29;20214;-76
2022/01/24 12:37:03;;;;;;;25.73;12.57;;;4.80;99.90;;;;;;4850587;29;20251;-78
2022/01/24 12:39:55;;;;;;;19.37;11.93;;;4.60;99.90;;;;;;4852945;29;20791;-79
2022/01/24 12:42:36;;;;;;;14.70;11.90;;;4.40;99.90;;;;;;4865121;29;20222;-79
2022/01/24 12:48:10;;;;;;;51.10;14.83;;;4.30;99.90;;;;;;4856744;29;20253;-81
2022/01/24 12:50:44;;;;;;;31.60;13.87;;;4.40;99.90;;;;;;4863237;29;20195;-79
2022/01/24 12:53:14;;;;;;;17.27;12.17;;;4.40;99.90;;;;;;4863182;29;20218;-78
2022/01/24 12:55:44;;;;;;;26.33;13.37;;;4.20;99.90;;;;;;4862863;29;20309;-78
2022/01/24 12:58:15;;;;;;;30.43;13.07;;;3.90;99.90;;;;;;4861646;29;20203;-78
2022/01/24 13:00:45;;;;;;;35.93;14.53;;;3.90;99.90;;;;;;4863223;29;20230;-77
2022/01/24 13:03:16;;;;;;;22.40;14.20;;;3.60;99.90;;;;;;4857680;29;20215;-78
2022/01/24 13:05:46;;;;;;;18.93;12.33;;;3.60;99.90;;;;;;4863224;29;20712;-77
2022/01/24 13:08:17;;;;;;;41.70;14.93;;;3.50;99.90;;;;;;4864028;29;20244;-78
2022/01/24 13:10:48;;;;;;;26.07;13.47;;;3.60;99.90;;;;;;4858485;29;20294;-77
2022/01/24 13:13:18;;;;;;;19.40;12.80;;;3.80;99.90;;;;;;4866358;29;20817;-77
2022/01/24 13:21:25;;;;;;;14.97;12.70;;;3.50;99.90;;;;;;4854813;29;20226;-77
2022/01/24 13:23:57;;;;;;;23.63;14.53;;;3.30;99.90;;;;;;4853489;29;20263;-80
2022/01/24 13:26:26;;;;;;;19.40;13.30;;;3.20;99.90;;;;;;4845939;29;20222;-76
2022/01/24 13:29:02;;;;;;;26.10;14.17;;;3.10;99.90;;;;;;4850566;29;20579;-77
2022/01/24 13:31:30;;;;;;;18.97;13.13;;;3.30;99.90;;;;;;4861078;29;20596;-77
2022/01/24 13:33:59;;;;;;;23.10;12.33;;;3.40;99.90;;;;;;4854880;29;20210;-78
2022/01/24 13:36:28;;;;;;;35.43;13.47;;;3.40;99.90;;;;;;4852772;29;20287;-80
2022/01/24 13:38:56;;;;;;;29.07;13.53;;;3.10;99.90;;;;;;4862683;29;20267;-77
2022/01/24 13:41:26;;;;;;;27.83;13.03;;;3.20;99.90;;;;;;4858687;29;20694;-77
2022/01/24 13:43:57;;;;;;;17.33;12.80;;;3.20;99.90;;;;;;4848468;29;20226;-79
2022/01/24 13:46:29;;;;;;;28.50;13.30;;;3.10;99.90;;;;;;4858838;29;20238;-78
2022/01/24 13:49:01;;;;;;;21.03;12.93;;;2.90;99.90;;;;;;4862985;29;20207;-76
2022/01/24 13:51:34;;;;;;;26.97;12.53;;;3.00;99.90;;;;;;4863249;29;20203;-77
2022/01/24 13:54:04;;;;;;;20.87;12.53;;;3.00;99.90;;;;;;4852817;29;20297;-76
2022/01/24 13:56:43;;;;;;;19.73;12.50;;;2.90;99.90;;;;;;4850507;29;20235;-78
2022/01/24 13:59:17;;;;;;;21.80;12.60;;;2.90;99.90;;;;;;4865202;29;20684;-77
2022/01/24 14:01:59;;;;;;;22.40;12.63;;;2.70;99.90;;;;;;4870212;29;20198;-75
2022/01/24 14:04:34;;;;;;;28.03;13.23;;;2.80;99.90;;;;;;4874508;29;20231;-77
2022/01/24 14:07:06;;;;;;;16.63;12.90;;;3.00;99.90;;;;;;4872297;29;20233;-77
2022/01/24 14:09:44;;;;;;;18.40;13.30;;;2.90;99.90;;;;;;4868969;29;20223;-75
2022/01/24 14:12:15;;;;;;;32.73;14.80;;;2.90;99.90;;;;;;4861469;29;20225;-74
2022/01/24 14:14:54;;;;;;;32.30;13.80;;;3.00;99.90;;;;;;4860653;29;20709;-75
2022/01/24 14:17:36;;;;;;;26.17;13.83;;;2.90;99.90;;;;;;4853591;29;20234;-74
2022/01/24 14:20:08;;;;;;;60.03;17.13;;;2.80;99.90;;;;;;4866001;29;20223;-75
2022/01/24 14:22:44;;;;;;;53.90;16.03;;;2.90;99.90;;;;;;4862334;29;20661;-74
2022/01/24 14:25:21;;;;;;;42.93;16.20;;;2.90;99.90;;;;;;4852888;29;20271;-77
2022/01/24 14:27:53;;;;;;;47.45;15.88;;;2.90;99.90;;;;;;4858111;29;21014;-77
2022/01/24 14:30:37;;;;;;;31.60;15.67;;;2.90;99.90;;;;;;4876420;29;20191;-75
2022/01/24 14:33:12;;;;;;;18.77;14.73;;;2.70;99.90;;;;;;4880452;29;20214;-75
2022/01/24 14:35:53;;;;;;;42.57;17.37;;;2.60;99.90;;;;;;4867573;29;20203;-78
2022/01/24 14:38:37;;;;;;;36.40;15.83;;;2.40;99.90;;;;;;4861916;29;20211;-78
2022/01/24 14:41:07;;;;;;;26.87;14.80;;;2.30;99.90;;;;;;4856292;29;20230;-78
2022/01/24 14:46:25;;;;;;;21.20;14.93;;;2.30;99.90;;;;;;4860994;29;20205;-79
2022/01/24 14:48:57;;;;;;;35.10;16.85;;;2.30;99.90;;;;;;4862989;29;20463;-78
2022/01/24 14:51:28;;;;;;;28.17;15.93;;;2.30;99.90;;;;;;4855956;29;20264;-78
2022/01/24 14:53:59;;;;;;;29.73;16.17;;;2.10;99.90;;;;;;4849182;29;20279;-78
2022/01/24 14:56:28;;;;;;;46.77;18.83;;;2.10;99.90;;;;;;4870785;29;20231;-79
2022/01/24 14:58:59;;;;;;;29.17;16.53;;;1.90;99.90;;;;;;4866190;29;20219;-76
2022/01/24 15:01:28;;;;;;;24.43;17.13;;;1.80;99.90;;;;;;4860507;29;20246;-77
2022/01/24 15:03:57;;;;;;;41.50;18.30;;;1.60;99.90;;;;;;4853794;29;20212;-76
2022/01/24 15:06:26;;;;;;;30.53;18.00;;;1.50;99.90;;;;;;4853229;29;20211;-77
2022/01/24 15:09:05;;;;;;;29.10;18.33;;;1.30;99.90;;;;;;4869183;29;20208;-78
2022/01/24 15:11:36;;;;;;;41.07;20.60;;;1.10;99.90;;;;;;4854776;29;20240;-79
2022/01/24 15:14:11;;;;;;;38.53;20.97;;;1.00;99.90;;;;;;4852487;29;20452;-76
2022/01/24 15:16:45;;;;;;;25.90;18.70;;;0.90;99.90;;;;;;4844710;29;20483;-80
2022/01/24 15:27:34;;;;;;;35.77;19.80;;;0.70;99.90;;;;;;4846312;29;20536;-77
2022/01/24 15:30:04;;;;;;;25.27;18.93;;;0.70;99.90;;;;;;4854170;29;20211;-80
2022/01/24 15:32:47;;;;;;;33.47;21.00;;;0.50;99.90;;;;;;4854921;29;20449;-77
2022/01/24 15:35:16;;;;;;;33.73;20.07;;;0.40;99.90;;;;;;4843317;29;20460;-79
2022/01/24 15:37:45;;;;;;;28.50;20.57;;;0.30;99.90;;;;;;4852164;29;20465;-78
2022/01/24 15:40:17;;;;;;;28.90;20.20;;;0.30;99.90;;;;;;4843925;29;20492;-80
2022/01/24 15:42:59;;;;;;;33.87;20.60;;;0.40;99.90;;;;;;4844942;29;20456;-76
2022/01/24 15:45:36;;;;;;;53.90;20.30;;;0.20;99.90;;;;;;4841434;29;20521;-80
2022/01/24 15:48:07;;;;;;;35.43;20.30;;;0.20;99.90;;;;;;4853990;29;20486;-77
2022/01/24 15:50:36;;;;;;;35.17;20.33;;;0.00;99.90;;;;;;4849435;29;20605;-78
2022/01/24 15:53:07;;;;;;;36.13;19.77;;;0.00;99.90;;;;;;4841961;29;20925;-79
2022/01/24 15:55:40;;;;;;;72.37;26.03;;;0.00;99.90;;;;;;4844412;29;20472;-77
2022/01/24 15:58:09;;;;;;;31.67;20.40;;;-0.10;99.90;;;;;;4859919;29;20992;-77
2022/01/24 16:00:40;;;;;;;38.33;19.60;;;-0.10;99.90;;;;;;4867186;29;20214;-75
2022/01/24 16:03:11;;;;;;;48.63;20.83;;;-0.30;99.90;;;;;;4843470;29;20469;-80
2022/01/24 16:05:40;;;;;;;44.63;22.90;;;-0.30;99.90;;;;;;4851326;29;20941;-75
2022/01/24 16:08:15;;;;;;;50.27;21.90;;;-0.40;99.90;;;;;;4858220;29;20480;-79
2022/01/24 16:10:45;;;;;;;35.50;23.23;;;-0.40;99.90;;;;;;4849445;29;20839;-77
2022/01/24 16:13:15;;;;;;;75.37;25.43;;;-0.40;99.90;;;;;;4850431;29;20456;-77
2022/01/24 16:15:43;;;;;;;107.27;26.40;;;-0.40;99.90;;;;;;4863023;29;20462;-77
2022/01/24 16:18:14;;;;;;;66.03;27.07;;;-0.60;99.90;;;;;;4848536;29;20977;-78
2022/01/24 16:21:01;;;;;;;59.37;27.60;;;-0.60;99.90;;;;;;4846906;29;20468;-78
2022/01/24 16:23:44;;;;;;;58.63;26.57;;;-0.60;99.90;;;;;;4851172;29;20865;-77
2022/01/24 16:26:16;;;;;;;70.67;25.20;;;-0.70;99.90;;;;;;4858734;29;20856;-76
2022/01/24 16:28:45;;;;;;;77.40;28.53;;;-0.70;99.90;;;;;;4861346;29;20529;-77
2022/01/24 16:31:14;;;;;;;89.60;27.40;;;-0.70;99.90;;;;;;4844377;29;20492;-77
2022/01/24 16:33:43;;;;;;;92.07;27.70;;;-0.70;99.90;;;;;;4861724;29;20500;-77
2022/01/24 16:36:14;;;;;;;167.47;27.93;;;-0.70;99.90;;;;;;4846533;29;20453;-77
2022/01/24 16:38:43;;;;;;;158.00;29.27;;;-0.80;99.90;;;;;;4859547;29;20516;-78
2022/01/24 16:41:15;;;;;;;65.10;27.10;;;-0.90;99.90;;;;;;4849038;29;20488;-78
2022/01/24 16:43:55;;;;;;;121.07;29.93;;;-0.80;99.90;;;;;;4860204;29;20825;-79
2022/01/24 16:49:10;;;;;;;147.30;25.97;;;-0.90;99.90;;;;;;4845535;29;20484;-78
2022/01/24 16:51:39;;;;;;;143.67;24.13;;;-0.90;99.90;;;;;;4845008;29;20487;-78
2022/01/24 16:54:13;;;;;;;318.97;26.73;;;-0.90;99.90;;;;;;4844916;29;20524;-79
2022/01/24 16:56:42;;;;;;;55.00;22.63;;;-1.00;99.90;;;;;;4844115;29;20493;-77
2022/01/24 16:59:12;;;;;;;94.70;27.20;;;-1.00;99.90;;;;;;4843860;29;20476;-78
2022/01/24 17:01:41;;;;;;;114.80;27.30;;;-1.10;99.90;;;;;;4860348;29;20475;-77
2022/01/24 17:04:11;;;;;;;93.63;27.20;;;-1.10;99.90;;;;;;4868492;29;20444;-77
2022/01/24 17:06:40;;;;;;;110.37;24.27;;;-1.10;99.90;;;;;;4862038;29;20470;-76
2022/01/24 17:09:10;;;;;;;131.40;27.10;;;-1.10;99.90;;;;;;4856354;29;20512;-76
2022/01/24 17:11:43;;;;;;;142.40;27.23;;;-1.20;99.90;;;;;;4843779;29;20473;-75
2022/01/24 17:14:18;;;;;;;134.27;27.60;;;-1.20;99.90;;;;;;4844441;29;20496;-77
2022/01/24 17:16:48;;;;;;;110.03;24.63;;;-1.20;99.90;;;;;;4845862;29;20543;-76
2022/01/24 17:19:18;;;;;;;181.50;28.33;;;-1.30;99.90;;;;;;4861952;29;20447;-77
2022/01/24 17:21:48;;;;;;;96.47;25.60;;;-1.30;99.90;;;;;;4861443;29;20519;-77
2022/01/24 17:24:26;;;;;;;98.37;26.80;;;-1.30;99.90;;;;;;4856732;29;20484;-77
2022/01/24 17:27:16;;;;;;;71.17;24.13;;;-1.40;99.90;;;;;;4864278;29;20540;-80
2022/01/24 17:29:47;;;;;;;152.73;24.87;;;-1.20;99.90;;;;;;4868084;29;20494;-78
2022/01/24 17:32:33;;;;;;;70.80;25.37;;;-1.40;99.90;;;;;;4861071;29;20492;-78
2022/01/24 17:35:02;;;;;;;150.93;26.07;;;-1.40;99.90;;;;;;4861093;29;20825;-76
2022/01/24 17:37:34;;;;;;;91.37;25.67;;;-1.40;99.90;;;;;;4862541;29;20825;-76
2022/01/24 17:40:02;;;;;;;91.50;25.17;;;-1.50;99.90;;;;;;4857760;29;20528;-76
2022/01/24 17:42:31;;;;;;;102.43;25.93;;;-1.50;99.90;;;;;;4869269;29;20540;-76
2022/01/24 17:45:00;;;;;;;163.10;26.87;;;-1.50;99.90;;;;;;4869072;29;20436;-76
2022/01/24 17:47:29;;;;;;;77.67;26.10;;;-1.50;99.90;;;;;;4873853;29;20485;-76
2022/01/24 17:49:57;;;;;;;135.20;26.93;;;-1.50;99.90;;;;;;4872384;29;20491;-77
2022/01/24 17:52:25;;;;;;;140.90;27.50;;;-1.50;99.90;;;;;;4862848;29;20465;-78
2022/01/24 17:54:53;;;;;;;90.43;27.63;;;-1.60;99.90;;;;;;4844590;29;20489;-76
2022/01/24 17:57:22;;;;;;;45.73;26.40;;;-1.60;99.90;;;;;;4859302;29;20471;-76
2022/01/24 17:59:50;;;;;;;81.53;36.13;;;-1.60;99.90;;;;;;4863825;29;20502;-77
2022/01/24 18:02:20;;;;;;;61.87;29.50;;;-1.60;99.90;;;;;;4848790;29;20459;-78
2022/01/24 18:04:48;;;;;;;47.73;25.77;;;-1.60;99.90;;;;;;4856264;29;20503;-78
2022/01/24 18:07:17;;;;;;;106.57;29.10;;;-1.50;99.90;;;;;;4855447;29;20551;-77
2022/01/24 18:09:46;;;;;;;111.57;30.17;;;-1.70;99.90;;;;;;4861686;29;20487;-76
2022/01/24 18:12:15;;;;;;;102.53;36.07;;;-1.70;99.90;;;;;;4861904;29;20467;-76
2022/01/24 18:14:43;;;;;;;70.80;31.40;;;-1.70;99.90;;;;;;4872661;29;20579;-75
2022/01/24 18:17:11;;;;;;;74.27;37.00;;;-1.80;99.90;;;;;;4880689;29;20500;-76
2022/01/24 18:19:41;;;;;;;111.67;32.13;;;-1.70;99.90;;;;;;4866156;29;20464;-76
2022/01/24 18:22:11;;;;;;;96.73;32.80;;;-1.60;99.90;;;;;;4875254;29;20499;-78
2022/01/24 18:24:41;;;;;;;66.03;29.97;;;-1.70;99.90;;;;;;4858533;29;20514;-76
2022/01/24 18:27:09;;;;;;;85.13;30.37;;;-1.60;99.90;;;;;;4872586;29;20436;-76
2022/01/24 18:29:39;;;;;;;59.97;28.37;;;-1.60;99.90;;;;;;4861961;29;20590;-77
2022/01/24 18:32:08;;;;;;;158.13;30.03;;;-1.70;99.90;;;;;;4862352;29;20492;-77
2022/01/24 18:34:36;;;;;;;65.50;28.13;;;-1.70;99.90;;;;;;4852588;29;21038;-77
2022/01/24 18:37:07;;;;;;;107.00;33.37;;;-1.70;99.90;;;;;;4858733;29;20520;-78
2022/01/24 18:39:36;;;;;;;75.10;30.00;;;-1.70;99.90;;;;;;4862371;29;20454;-80
2022/01/24 18:42:10;;;;;;;103.83;35.47;;;-1.70;99.90;;;;;;4861737;29;20977;-77
2022/01/24 18:44:40;;;;;;;107.30;43.60;;;-1.60;99.90;;;;;;4855270;29;20603;-78
2022/01/24 18:47:10;;;;;;;129.30;40.43;;;-1.60;99.90;;;;;;4851294;29;20260;-78
2022/01/24 18:49:39;;;;;;;146.17;47.77;;;-1.60;99.90;;;;;;4874548;29;20523;-77
2022/01/24 18:52:09;;;;;;;88.73;35.40;;;-1.50;99.90;;;;;;4855188;29;20526;-78
2022/01/24 18:54:38;;;;;;;137.97;35.03;;;-1.50;99.90;;;;;;4857905;29;20936;-76
2022/01/24 18:57:08;;;;;;;103.30;32.03;;;-1.60;99.90;;;;;;4853621;29;20455;-76
2022/01/24 18:59:41;;;;;;;69.07;30.47;;;-1.60;99.90;;;;;;4874201;29;20472;-75
2022/01/24 19:02:09;;;;;;;58.70;28.50;;;-1.60;99.90;;;;;;4885532;29;20474;-80
2022/01/24 19:04:39;;;;;;;71.97;32.23;;;-1.70;99.90;;;;;;4861353;29;20490;-77
2022/01/24 19:07:09;;;;;;;106.10;31.97;;;-1.70;99.90;;;;;;4861749;29;20480;-77
2022/01/24 19:09:38;;;;;;;118.73;31.30;;;-1.70;99.90;;;;;;4848705;29;20509;-77
2022/01/24 19:12:08;;;;;;;64.17;28.53;;;-1.60;99.90;;;;;;4880694;29;20455;-79
2022/01/24 19:14:37;;;;;;;70.43;32.57;;;-1.70;99.90;;;;;;4868969;29;20465;-78
2022/01/24 19:17:10;;;;;;;77.33;29.77;;;-1.70;99.90;;;;;;4872212;29;20488;-78
2022/01/24 19:19:58;;;;;;;94.60;31.20;;;-1.70;99.90;;;;;;4858430;29;20476;-77
2022/01/24 19:25:14;;;;;;;84.33;30.87;;;-1.60;99.90;;;;;;4868427;29;20515;-76
2022/01/24 19:27:43;;;;;;;136.80;35.93;;;-1.60;99.90;;;;;;4863755;29;20535;-78
2022/01/24 19:30:12;;;;;;;129.23;31.97;;;-1.60;99.90;;;;;;4862927;29;20485;-79
2022/01/24 19:32:41;;;;;;;60.40;29.03;;;-1.70;99.90;;;;;;4863961;29;20458;-77
2022/01/24 19:35:09;;;;;;;59.40;30.53;;;-1.60;99.90;;;;;;4870986;29;20463;-78
2022/01/24 19:37:39;;;;;;;89.60;30.60;;;-1.60;99.90;;;;;;4870557;29;20556;-77
2022/01/24 19:40:08;;;;;;;104.50;29.07;;;-1.60;99.90;;;;;;4846648;29;20459;-76
2022/01/24 19:42:37;;;;;;;168.07;30.27;;;-1.60;99.90;;;;;;4857549;29;20490;-75
2022/01/24 19:45:06;;;;;;;104.60;28.53;;;-1.60;99.90;;;;;;4863264;29;20514;-77
2022/01/24 19:47:35;;;;;;;107.93;29.47;;;-1.70;99.90;;;;;;4849771;29;20453;-77
2022/01/24 19:50:04;;;;;;;88.77;31.93;;;-1.70;99.90;;;;;;4857558;29;20523;-79